createdAt,value
2022-08-18T00:00:20.714Z,8.27
2022-08-18T00:05:23.989Z,8.32
2022-08-18T00:10:27.869Z,8.18
2022-08-18T00:15:32.242Z,8.57
2022-08-18T00:20:45.226Z,8.93
2022-08-18T00:25:50.274Z,8.68
2022-08-18T00:30:54.629Z,8.77
2022-08-18T00:35:57.729Z,8.73
2022-08-18T00:41:02.449Z,8.98
2022-08-18T00:46:09.167Z,9.48
2022-08-18T00:51:15.463Z,8.77
2022-08-18T00:56:24.713Z,9.68
2022-08-18T01:01:31.879Z,9.50
2022-08-18T01:06:42.120Z,8.93
2022-08-18T01:11:45.510Z,9.27
2022-08-18T01:17:09.258Z,10.05
2022-08-18T01:22:18.282Z,9.37
2022-08-18T01:27:23.457Z,10.50
2022-08-18T01:32:27.638Z,8.88
2022-08-18T01:37:30.825Z,9.50
2022-08-18T01:42:35.823Z,9.35
2022-08-18T01:52:53.779Z,9.23
2022-08-18T01:57:58.404Z,11.50
2022-08-18T02:08:07.067Z,10.40
2022-08-18T02:13:13.036Z,10.95
2022-08-18T02:18:25.730Z,11.93
2022-08-18T02:23:41.136Z,10.50
2022-08-18T02:28:57.452Z,11.75
2022-08-18T02:34:00.700Z,12.02
2022-08-18T02:39:04.012Z,11.60
2022-08-18T02:44:08.618Z,12.82
2022-08-18T02:49:12.796Z,11.98
2022-08-18T02:54:15.877Z,12.70
2022-08-18T02:59:26.461Z,12.30
2022-08-18T03:04:31.286Z,13.23
2022-08-18T03:09:35.603Z,12.98
2022-08-18T03:14:40.130Z,13.30
2022-08-18T03:19:45.032Z,12.98
2022-08-18T03:24:50.959Z,13.52
2022-08-18T03:29:55.900Z,12.45
2022-08-18T03:35:01.724Z,12.63
2022-08-18T03:40:05.807Z,13.40
2022-08-18T03:45:17.358Z,12.70
2022-08-18T03:50:21.855Z,13.10
2022-08-18T03:55:25.626Z,13.40
2022-08-18T04:00:31.693Z,14.38
2022-08-18T04:05:39.522Z,13.88
2022-08-18T04:10:44.074Z,13.35
2022-08-18T04:15:48.748Z,13.52
2022-08-18T04:20:58.951Z,14.95
2022-08-18T04:26:02.900Z,12.15
2022-08-18T04:31:09.235Z,12.95
2022-08-18T04:36:20.659Z,13.65
2022-08-18T04:41:27.630Z,13.35
2022-08-18T04:46:36.475Z,13.27
2022-08-18T04:52:37.012Z,12.52
2022-08-18T04:57:10.443Z,13.07
2022-08-18T05:02:16.335Z,13.15
2022-08-18T05:07:23.036Z,12.18
2022-08-18T05:12:26.812Z,12.30
2022-08-18T05:17:32.040Z,11.73
2022-08-18T05:22:39.214Z,10.90
2022-08-18T05:27:43.850Z,11.10
2022-08-18T05:32:50.296Z,10.73
2022-08-18T05:38:11.338Z,11.25
2022-08-18T05:43:16.326Z,10.82
2022-08-18T05:48:20.698Z,10.45
2022-08-18T05:53:43.786Z,10.65
2022-08-18T05:58:51.468Z,10.00
2022-08-18T06:04:01.121Z,10.50
2022-08-18T06:09:10.774Z,9.90
2022-08-18T06:14:13.940Z,10.05
2022-08-18T06:19:30.255Z,9.65
2022-08-18T06:24:38.633Z,10.00
2022-08-18T06:29:53.586Z,9.88
2022-08-18T06:35:18.294Z,9.55
2022-08-18T06:40:21.477Z,9.02
2022-08-18T06:45:33.909Z,10.07
2022-08-18T06:50:49.050Z,27.75
2022-08-18T06:55:52.225Z,28.13
2022-08-18T07:00:59.824Z,25.27
2022-08-18T07:06:08.101Z,10.73
2022-08-18T07:11:14.876Z,8.88
2022-08-18T07:16:54.960Z,9.20
2022-08-18T07:22:06.293Z,9.85
2022-08-18T07:27:11.185Z,9.63
2022-08-18T07:32:20.971Z,9.70
2022-08-18T07:37:32.488Z,9.52
2022-08-18T07:43:01.428Z,9.70
2022-08-18T07:48:36.614Z,9.10
2022-08-18T07:53:42.838Z,9.15
2022-08-18T07:59:04.795Z,9.43
2022-08-18T08:04:26.235Z,9.57
2022-08-18T08:09:38.157Z,10.00
2022-08-18T08:14:42.847Z,9.45
2022-08-18T08:20:21.412Z,9.43
2022-08-18T08:25:47.151Z,9.68
2022-08-18T08:31:19.121Z,9.77
2022-08-18T08:36:29.862Z,10.65
2022-08-18T08:41:40.106Z,11.30
2022-08-18T08:46:49.549Z,10.45
2022-08-18T08:51:57.975Z,10.32
2022-08-18T08:57:04.877Z,11.55
2022-08-18T09:02:46.843Z,10.15
2022-08-18T09:08:15.067Z,10.73
2022-08-18T09:13:51.064Z,10.63
2022-08-18T09:19:12.918Z,9.15
2022-08-18T09:24:23.745Z,10.77
2022-08-18T09:29:49.012Z,9.63
2022-08-18T09:35:13.107Z,10.25
2022-08-18T09:46:06.839Z,10.80
2022-08-18T09:51:34.104Z,10.02
2022-08-18T09:57:19.622Z,9.15
2022-08-18T10:03:10.356Z,9.98
2022-08-18T10:08:58.625Z,9.27
2022-08-18T10:14:18.250Z,10.23
2022-08-18T10:19:33.877Z,9.95
2022-08-18T10:24:53.934Z,9.85
2022-08-18T10:29:58.261Z,9.55
2022-08-18T10:35:01.828Z,8.65
2022-08-18T10:40:16.326Z,8.52
2022-08-18T10:45:28.264Z,8.35
2022-08-18T10:50:38.519Z,8.75
2022-08-18T10:55:50.178Z,9.00
2022-08-18T11:01:10.547Z,9.68
2022-08-18T11:06:21.564Z,8.23
2022-08-18T11:17:07.020Z,8.05
2022-08-18T11:27:48.418Z,8.23
2022-08-18T11:38:23.199Z,8.32
2022-08-18T11:43:40.717Z,7.72
2022-08-18T11:48:53.523Z,6.93
2022-08-18T11:54:00.607Z,7.82
2022-08-18T11:59:06.939Z,7.30
2022-08-18T12:04:22.208Z,7.45
2022-08-18T12:15:07.964Z,6.68
2022-08-18T12:20:17.394Z,7.93
2022-08-18T12:25:24.604Z,6.63
2022-08-18T12:30:29.881Z,6.82
2022-08-18T12:35:34.737Z,6.40
2022-08-18T12:40:38.300Z,6.70
2022-08-18T12:45:43.329Z,6.40
2022-08-18T12:50:54.234Z,5.72
2022-08-18T12:55:59.274Z,6.20
2022-08-18T13:01:04.791Z,5.68
2022-08-18T13:06:11.842Z,5.78
2022-08-18T13:11:23.707Z,6.03
2022-08-18T13:16:47.792Z,5.82
2022-08-18T13:21:57.313Z,5.72
2022-08-18T13:27:00.715Z,5.60
2022-08-18T13:32:09.444Z,5.20
2022-08-18T13:37:15.217Z,5.60
2022-08-18T13:42:26.766Z,5.72
2022-08-18T13:47:38.039Z,5.70
2022-08-18T13:52:44.693Z,5.75
2022-08-18T13:57:50.704Z,7.07
2022-08-18T14:03:02.171Z,6.32
2022-08-18T14:08:06.814Z,6.35
2022-08-18T14:13:21.289Z,7.45
2022-08-18T14:18:30.681Z,7.20
2022-08-18T14:23:53.292Z,7.05
2022-08-18T14:28:56.890Z,7.10
2022-08-18T14:34:04.898Z,7.55
2022-08-18T14:54:17.823Z,5.63
2022-08-18T14:59:23.132Z,6.38
2022-08-18T15:04:27.655Z,6.05
2022-08-18T15:09:32.169Z,6.22
2022-08-18T15:59:52.973Z,4.55
2022-08-18T16:04:56.007Z,4.47
2022-08-18T16:10:01.313Z,4.57
2022-08-18T16:15:07.727Z,4.32
2022-08-18T16:20:12.191Z,4.80
2022-08-18T16:25:16.459Z,5.18
2022-08-18T16:38:20.441Z,5.05
2022-08-18T16:43:23.695Z,5.28
2022-08-18T16:53:39.836Z,5.95
2022-08-18T16:59:03.151Z,6.00
2022-08-18T17:04:13.630Z,5.93
2022-08-18T17:09:26.308Z,7.13
2022-08-18T17:14:31.406Z,5.85
2022-08-18T17:19:35.542Z,6.05
2022-08-18T17:24:49.496Z,5.85
2022-08-18T17:35:07.000Z,5.55
2022-08-18T17:40:16.904Z,5.85
2022-08-18T17:45:22.039Z,5.85
2022-08-18T17:50:49.464Z,6.85
2022-08-18T17:56:00.013Z,6.22
2022-08-18T18:01:04.216Z,6.47
2022-08-18T18:06:11.216Z,6.47
2022-08-18T18:11:15.795Z,5.70
2022-08-18T18:16:23.547Z,5.95
2022-08-18T18:22:00.504Z,6.03
2022-08-18T18:26:52.305Z,6.30
2022-08-18T18:32:00.832Z,6.32
2022-08-18T18:37:04.185Z,6.38
2022-08-18T18:42:18.076Z,7.13
2022-08-18T18:47:45.746Z,6.90
2022-08-18T18:53:00.239Z,6.97
2022-08-18T18:58:16.362Z,6.75
2022-08-18T19:03:24.556Z,6.85
2022-08-18T19:08:39.603Z,6.88
2022-08-18T19:13:53.474Z,6.50
2022-08-18T19:19:37.707Z,6.95
2022-08-18T19:24:25.796Z,6.70
2022-08-18T19:29:34.834Z,7.63
2022-08-18T19:34:51.664Z,6.85
2022-08-18T19:40:09.348Z,6.53
2022-08-18T19:45:24.783Z,5.90
2022-08-18T19:50:33.583Z,5.85
2022-08-18T19:55:51.775Z,6.63
2022-08-18T20:01:00.269Z,7.13
2022-08-18T20:06:33.592Z,6.28
2022-08-18T20:11:56.102Z,6.60
2022-08-18T20:17:18.279Z,6.15
2022-08-18T20:22:34.104Z,6.03
2022-08-18T20:27:39.689Z,5.68
2022-08-18T20:32:44.262Z,5.50
2022-08-18T20:43:06.799Z,5.35
2022-08-18T20:48:32.705Z,6.05
2022-08-18T20:53:57.786Z,6.18
2022-08-18T20:59:08.529Z,6.13
2022-08-18T21:04:13.444Z,6.03
2022-08-18T21:09:18.661Z,5.93
2022-08-18T21:14:25.464Z,6.47
2022-08-18T21:19:40.836Z,6.10
2022-08-18T21:24:49.886Z,6.60
2022-08-18T21:29:54.504Z,6.63
2022-08-18T21:35:09.978Z,6.78
2022-08-18T21:40:14.470Z,7.93
2022-08-18T21:45:23.377Z,7.57
2022-08-18T21:50:30.134Z,8.20
2022-08-18T21:55:37.291Z,7.40
2022-08-18T22:00:43.248Z,7.53
2022-08-18T22:05:58.874Z,8.13
2022-08-18T22:11:59.856Z,7.78
2022-08-18T22:17:24.466Z,7.32
2022-08-18T22:22:49.285Z,8.15
2022-08-18T22:27:53.576Z,10.15
2022-08-18T22:32:56.651Z,9.23
2022-08-18T22:38:01.628Z,9.55
2022-08-18T22:43:05.035Z,9.10
2022-08-18T22:48:08.085Z,10.57
2022-08-18T22:53:13.627Z,10.55
2022-08-18T22:58:22.089Z,10.85
2022-08-18T23:03:31.341Z,12.00
2022-08-18T23:08:55.097Z,13.20
2022-08-18T23:14:02.217Z,11.30
2022-08-18T23:19:05.510Z,13.55
2022-08-18T23:24:12.565Z,13.73
2022-08-18T23:29:16.061Z,13.75
2022-08-18T23:34:24.421Z,13.57
2022-08-18T23:39:31.417Z,14.52
2022-08-18T23:44:34.515Z,14.73
2022-08-18T23:49:38.250Z,14.98
2022-08-18T23:54:42.741Z,14.55
2022-08-18T23:59:45.843Z,15.00
